Alston, GA

10:55 PM EDT on July 23, 2014 (GMT -0400)
Alamo (KGAALAMO2) Elev 259 ft | 32.07 °N, 82.73 °W | Change Station

Current weather conditions updated 2 minutes ago

Clear
Clear
77.0 °F
Feels Like 78 °F
N
0.0
Wind Variable Wind from West

Tomorrow is forecast to be Much Warmer than today.

Today
High -- | Low -- °F
--% Chance of Precip.
Yesterday
High -- | Low -- °F
Precip. -- in
6:39 AM 8:33 PM
Waning Crescent, 7% visible
Pressure 29.99 in
Visibility 10.0 miles
Clouds Clear
Heat Index 78 °F
Dew Point 71 °F
Humidity 83%
Rainfall 0.00 in
Snow Depth Not available.
UV 0 out of 12
Pollen 3.30 out of 12
Air Quality Not available.
Flu Activity Not available.
METAR KAZE 240235Z AUTO 00000KT 10SM CLR 27/24 A2999 RMK AO2 T02660235

More Conditions Fewer Conditions

Pressure 29.99 in
Visibility 10.0 miles
Clouds Clear
Heat Index 78 °F
Dew Point 71 °F
Humidity 83%
Rainfall 0.00 in
Snow Depth Not available.
UV 0 out of 12
Pollen 3.30 out of 12
Air Quality Not available.
Flu Activity Not available.
METAR KAZE 240235Z AUTO 00000KT 10SM CLR 27/24 A2999 RMK AO2 T02660235

More Conditions Fewer Conditions

10-Day Weather Forecast

Almanac

Astronomy

Jul. 23, 2014 Rise Set
Actual Time 6:39 AM EDT 8:33 PM EDT
Civil Twilight 6:12 AM EDT 9:00 PM EDT
Nautical Twilight 5:39 AM EDT 9:33 PM EDT
Astronomical Twilight 5:04 AM EDT 10:08 PM EDT
Moon 3:55 AM EDT (7/23) 6:02 PM EDT (7/23)
Length of Visible Light 14h 48m
Length of Day
13h 54m
Tomorrow will be 1m 14s shorter.
Waning Crescent, 7% of the Moon is Illuminated
Today
Waning Crescent
Jul 26
New
Aug 3
First Quarter
Aug 10
Full
Aug 17
Last Quarter

Today's Extremes

State Highs State Lows

Community

WunderPhotos

Upload Photos

1,736,864 photos uploaded!

Nearby

Snow Depth

Station Depth Elevation
No new snow has been reported.

Earthquake Activity

City Distance Mag. Time & Date
No recent earthquake activity has been reported nearby.
Minimum magnitude displayed is 2.5.

Coastal Water Temperatures

Place Temperature
No Stations Reporting

Nearby Weather Stations

Station Location Temp. Heat Index Dew Point Humidity Wind Precip. Elev Updated Type
Alamo, Alamo, GA 77.0 °F 78 °F 71 °F 83% West  at  0.0 mph - / hr 259 ft 10:52 PM EDT Normal
South Treutlen Co., Soperton, GA 74.6 °F 72 °F 74 °F 98% North  at  0.0 mph 0.00 in / hr 236 ft 10:54 PM EDT Rapid Fire
Appling, Baxley, GA 77.9 °F 80 °F 73 °F 86% South  at  0.0 mph 0.00 in / hr 203 ft 10:25 PM EDT Rapid Fire
RAWS MCRAE GA, McRae, GA 76 °F 77 °F 70 °F 82% North  at  0 mph 0.00 in / hr 201 ft 10:03 PM EDT MADIS

Show More Stations Show Fewer Stations